sensor_id;sensor_type;location;lat;lon;timestamp;temperature;humidity
35804;DHT22;21924;51.934;7.414;2023-05-16T00:00:00;11.00;99.90
35804;DHT22;21924;51.934;7.414;2023-05-16T00:02:44;10.90;99.90
35804;DHT22;21924;51.934;7.414;2023-05-16T00:05:29;10.90;99.90
35804;DHT22;21924;51.934;7.414;2023-05-16T00:08:13;10.90;99.90
35804;DHT22;21924;51.934;7.414;2023-05-16T00:10:57;10.80;99.90
35804;DHT22;21924;51.934;7.414;2023-05-16T00:13:41;10.70;99.90
35804;DHT22;21924;51.934;7.414;2023-05-16T00:16:26;10.70;99.90
35804;DHT22;21924;51.934;7.414;2023-05-16T00:19:13;10.70;99.90
35804;DHT22;21924;51.934;7.414;2023-05-16T00:21:58;10.70;99.90
35804;DHT22;21924;51.934;7.414;2023-05-16T00:24:42;10.70;99.90
35804;DHT22;21924;51.934;7.414;2023-05-16T00:27:26;10.60;99.90
35804;DHT22;21924;51.934;7.414;2023-05-16T00:30:11;10.60;99.90
35804;DHT22;21924;51.934;7.414;2023-05-16T00:32:55;10.60;99.90
35804;DHT22;21924;51.934;7.414;2023-05-16T00:35:40;10.60;99.90
35804;DHT22;21924;51.934;7.414;2023-05-16T00:38:24;10.50;99.90
35804;DHT22;21924;51.934;7.414;2023-05-16T00:41:09;10.40;99.90
35804;DHT22;21924;51.934;7.414;2023-05-16T00:43:53;10.30;99.90
35804;DHT22;21924;51.934;7.414;2023-05-16T00:46:38;10.10;99.90
35804;DHT22;21924;51.934;7.414;2023-05-16T00:49:22;10.10;99.90
35804;DHT22;21924;51.934;7.414;2023-05-16T00:52:07;10.00;99.90
35804;DHT22;21924;51.934;7.414;2023-05-16T00:54:51;9.90;99.90
35804;DHT22;21924;51.934;7.414;2023-05-16T00:57:37;9.80;99.90
35804;DHT22;21924;51.934;7.414;2023-05-16T01:00:21;9.70;99.90
35804;DHT22;21924;51.934;7.414;2023-05-16T01:03:05;9.60;99.90
35804;DHT22;21924;51.934;7.414;2023-05-16T01:05:50;9.50;99.90
35804;DHT22;21924;51.934;7.414;2023-05-16T01:08:34;9.50;99.90
35804;DHT22;21924;51.934;7.414;2023-05-16T01:20:50;9.20;99.90
35804;DHT22;21924;51.934;7.414;2023-05-16T01:26:59;9.20;99.90
35804;DHT22;21924;51.934;7.414;2023-05-16T01:29:45;9.20;99.90
35804;DHT22;21924;51.934;7.414;2023-05-16T01:32:29;9.20;99.90
35804;DHT22;21924;51.934;7.414;2023-05-16T01:35:15;9.20;99.90
35804;DHT22;21924;51.934;7.414;2023-05-16T01:38:03;9.20;99.90
35804;DHT22;21924;51.934;7.414;2023-05-16T01:41:03;9.10;99.90
35804;DHT22;21924;51.934;7.414;2023-05-16T01:43:54;9.20;99.90
35804;DHT22;21924;51.934;7.414;2023-05-16T01:46:42;9.20;99.90
35804;DHT22;21924;51.934;7.414;2023-05-16T01:49:35;9.20;99.90
35804;DHT22;21924;51.934;7.414;2023-05-16T01:53:13;9.10;99.90
35804;DHT22;21924;51.934;7.414;2023-05-16T01:55:43;9.20;99.90
35804;DHT22;21924;51.934;7.414;2023-05-16T01:58:31;9.20;99.90
35804;DHT22;21924;51.934;7.414;2023-05-16T02:01:16;9.30;99.90
35804;DHT22;21924;51.934;7.414;2023-05-16T02:04:01;9.30;99.90
35804;DHT22;21924;51.934;7.414;2023-05-16T02:06:45;9.30;99.90
35804;DHT22;21924;51.934;7.414;2023-05-16T02:09:29;9.30;99.90
35804;DHT22;21924;51.934;7.414;2023-05-16T02:12:14;9.30;99.90
35804;DHT22;21924;51.934;7.414;2023-05-16T02:14:58;9.30;99.90
35804;DHT22;21924;51.934;7.414;2023-05-16T02:17:42;9.30;99.90
35804;DHT22;21924;51.934;7.414;2023-05-16T02:20:26;9.30;99.90
35804;DHT22;21924;51.934;7.414;2023-05-16T02:23:11;9.30;99.90
35804;DHT22;21924;51.934;7.414;2023-05-16T02:25:55;9.30;99.90
35804;DHT22;21924;51.934;7.414;2023-05-16T02:28:40;9.20;99.90
35804;DHT22;21924;51.934;7.414;2023-05-16T02:31:28;9.20;99.90
35804;DHT22;21924;51.934;7.414;2023-05-16T02:34:12;9.20;99.90
35804;DHT22;21924;51.934;7.414;2023-05-16T02:36:57;9.20;99.90
35804;DHT22;21924;51.934;7.414;2023-05-16T02:39:41;9.20;99.90
35804;DHT22;21924;51.934;7.414;2023-05-16T02:42:25;9.20;99.90
35804;DHT22;21924;51.934;7.414;2023-05-16T02:45:14;9.10;99.90
35804;DHT22;21924;51.934;7.414;2023-05-16T02:47:58;9.00;99.90
35804;DHT22;21924;51.934;7.414;2023-05-16T02:50:42;9.00;99.90
35804;DHT22;21924;51.934;7.414;2023-05-16T02:53:27;8.90;99.90
35804;DHT22;21924;51.934;7.414;2023-05-16T02:56:11;8.90;99.90
35804;DHT22;21924;51.934;7.414;2023-05-16T02:58:55;8.80;99.90
35804;DHT22;21924;51.934;7.414;2023-05-16T03:01:40;8.90;99.90
35804;DHT22;21924;51.934;7.414;2023-05-16T03:04:24;8.80;99.90
35804;DHT22;21924;51.934;7.414;2023-05-16T03:07:08;8.80;99.90
35804;DHT22;21924;51.934;7.414;2023-05-16T03:09:52;8.80;99.90
35804;DHT22;21924;51.934;7.414;2023-05-16T03:12:37;8.80;99.90
35804;DHT22;21924;51.934;7.414;2023-05-16T03:15:21;8.70;99.90
35804;DHT22;21924;51.934;7.414;2023-05-16T03:18:05;8.60;99.90
35804;DHT22;21924;51.934;7.414;2023-05-16T03:20:50;8.50;99.90
35804;DHT22;21924;51.934;7.414;2023-05-16T03:23:36;8.50;99.90
35804;DHT22;21924;51.934;7.414;2023-05-16T03:26:20;8.40;99.90
35804;DHT22;21924;51.934;7.414;2023-05-16T03:29:05;8.40;99.90
35804;DHT22;21924;51.934;7.414;2023-05-16T03:31:49;8.30;99.90
35804;DHT22;21924;51.934;7.414;2023-05-16T03:34:34;8.20;99.90
35804;DHT22;21924;51.934;7.414;2023-05-16T03:37:18;8.20;99.90
35804;DHT22;21924;51.934;7.414;2023-05-16T03:40:03;8.10;99.90
35804;DHT22;21924;51.934;7.414;2023-05-16T03:42:50;8.10;99.90
35804;DHT22;21924;51.934;7.414;2023-05-16T03:45:34;8.00;99.90
35804;DHT22;21924;51.934;7.414;2023-05-16T03:48:19;8.00;99.90
35804;DHT22;21924;51.934;7.414;2023-05-16T03:51:03;7.90;99.90
35804;DHT22;21924;51.934;7.414;2023-05-16T03:53:47;7.90;99.90
35804;DHT22;21924;51.934;7.414;2023-05-16T03:56:31;7.90;99.90
35804;DHT22;21924;51.934;7.414;2023-05-16T03:59:16;7.80;99.90
35804;DHT22;21924;51.934;7.414;2023-05-16T04:02:00;7.70;99.90
35804;DHT22;21924;51.934;7.414;2023-05-16T04:04:44;7.70;99.90
35804;DHT22;21924;51.934;7.414;2023-05-16T04:07:28;7.70;99.90
35804;DHT22;21924;51.934;7.414;2023-05-16T04:10:13;7.70;99.90
35804;DHT22;21924;51.934;7.414;2023-05-16T04:12:57;7.70;99.90
35804;DHT22;21924;51.934;7.414;2023-05-16T04:15:42;7.60;99.90
35804;DHT22;21924;51.934;7.414;2023-05-16T04:18:26;7.60;99.90
35804;DHT22;21924;51.934;7.414;2023-05-16T04:21:10;7.60;99.90
35804;DHT22;21924;51.934;7.414;2023-05-16T04:23:58;7.60;99.90
35804;DHT22;21924;51.934;7.414;2023-05-16T04:26:43;7.70;99.90
35804;DHT22;21924;51.934;7.414;2023-05-16T04:29:27;7.80;99.90
35804;DHT22;21924;51.934;7.414;2023-05-16T04:32:11;7.80;99.90
35804;DHT22;21924;51.934;7.414;2023-05-16T04:34:55;7.90;99.90
35804;DHT22;21924;51.934;7.414;2023-05-16T04:37:40;7.90;99.90
35804;DHT22;21924;51.934;7.414;2023-05-16T04:40:24;8.00;99.90
35804;DHT22;21924;51.934;7.414;2023-05-16T04:43:08;8.10;99.90
35804;DHT22;21924;51.934;7.414;2023-05-16T04:45:52;8.10;99.90
35804;DHT22;21924;51.934;7.414;2023-05-16T04:48:37;8.10;99.90
35804;DHT22;21924;51.934;7.414;2023-05-16T04:51:21;8.10;99.90
35804;DHT22;21924;51.934;7.414;2023-05-16T04:54:05;8.00;99.90
35804;DHT22;21924;51.934;7.414;2023-05-16T04:56:52;8.10;99.90
35804;DHT22;21924;51.934;7.414;2023-05-16T04:59:36;8.10;99.90
35804;DHT22;21924;51.934;7.414;2023-05-16T05:02:21;8.10;99.90
35804;DHT22;21924;51.934;7.414;2023-05-16T05:05:06;8.10;99.90
35804;DHT22;21924;51.934;7.414;2023-05-16T05:07:51;8.10;99.90
35804;DHT22;21924;51.934;7.414;2023-05-16T05:10:35;8.20;99.90
35804;DHT22;21924;51.934;7.414;2023-05-16T05:13:20;8.20;99.90
35804;DHT22;21924;51.934;7.414;2023-05-16T05:16:04;8.30;99.90
35804;DHT22;21924;51.934;7.414;2023-05-16T05:18:49;8.30;99.90
35804;DHT22;21924;51.934;7.414;2023-05-16T05:21:33;8.40;99.90
35804;DHT22;21924;51.934;7.414;2023-05-16T05:24:17;8.40;99.90
35804;DHT22;21924;51.934;7.414;2023-05-16T05:27:02;8.50;99.90
35804;DHT22;21924;51.934;7.414;2023-05-16T05:29:46;8.50;99.90
35804;DHT22;21924;51.934;7.414;2023-05-16T05:32:30;8.50;99.90
35804;DHT22;21924;51.934;7.414;2023-05-16T05:35:14;8.60;99.90
35804;DHT22;21924;51.934;7.414;2023-05-16T05:37:59;8.60;99.90
35804;DHT22;21924;51.934;7.414;2023-05-16T05:40:43;8.80;99.90
35804;DHT22;21924;51.934;7.414;2023-05-16T05:43:27;8.80;99.90
35804;DHT22;21924;51.934;7.414;2023-05-16T05:46:12;9.00;99.90
35804;DHT22;21924;51.934;7.414;2023-05-16T05:48:56;9.10;99.90
35804;DHT22;21924;51.934;7.414;2023-05-16T05:51:41;9.20;99.90
35804;DHT22;21924;51.934;7.414;2023-05-16T05:54:25;9.10;99.90
35804;DHT22;21924;51.934;7.414;2023-05-16T05:57:10;9.10;99.90
35804;DHT22;21924;51.934;7.414;2023-05-16T05:59:54;9.10;99.90
35804;DHT22;21924;51.934;7.414;2023-05-16T06:02:38;9.10;99.90
35804;DHT22;21924;51.934;7.414;2023-05-16T06:05:23;9.10;99.90
35804;DHT22;21924;51.934;7.414;2023-05-16T06:08:07;9.10;99.90
35804;DHT22;21924;51.934;7.414;2023-05-16T06:10:52;9.20;99.90
35804;DHT22;21924;51.934;7.414;2023-05-16T06:13:36;9.30;99.90
35804;DHT22;21924;51.934;7.414;2023-05-16T06:16:26;9.30;99.90
35804;DHT22;21924;51.934;7.414;2023-05-16T06:19:10;9.50;99.90
35804;DHT22;21924;51.934;7.414;2023-05-16T06:21:58;9.50;99.90
35804;DHT22;21924;51.934;7.414;2023-05-16T06:24:43;9.60;99.90
35804;DHT22;21924;51.934;7.414;2023-05-16T06:27:27;9.70;99.90
35804;DHT22;21924;51.934;7.414;2023-05-16T06:30:11;9.60;99.90
35804;DHT22;21924;51.934;7.414;2023-05-16T06:32:55;9.60;99.90
35804;DHT22;21924;51.934;7.414;2023-05-16T06:35:40;9.70;99.90
35804;DHT22;21924;51.934;7.414;2023-05-16T06:38:24;9.80;99.90
35804;DHT22;21924;51.934;7.414;2023-05-16T06:41:09;10.00;99.90
35804;DHT22;21924;51.934;7.414;2023-05-16T06:43:53;10.10;99.90
35804;DHT22;21924;51.934;7.414;2023-05-16T06:46:37;10.30;99.90
35804;DHT22;21924;51.934;7.414;2023-05-16T06:49:22;10.40;99.90
35804;DHT22;21924;51.934;7.414;2023-05-16T06:52:06;10.50;99.90
35804;DHT22;21924;51.934;7.414;2023-05-16T06:54:51;10.50;99.90
35804;DHT22;21924;51.934;7.414;2023-05-16T06:57:35;10.60;99.90
35804;DHT22;21924;51.934;7.414;2023-05-16T07:00:20;10.50;99.90
35804;DHT22;21924;51.934;7.414;2023-05-16T07:03:04;10.70;99.90
35804;DHT22;21924;51.934;7.414;2023-05-16T07:05:48;10.70;99.90
35804;DHT22;21924;51.934;7.414;2023-05-16T07:08:36;10.70;99.90
35804;DHT22;21924;51.934;7.414;2023-05-16T07:11:20;10.70;99.90
35804;DHT22;21924;51.934;7.414;2023-05-16T07:14:04;10.60;99.90
35804;DHT22;21924;51.934;7.414;2023-05-16T07:16:49;10.50;99.90
35804;DHT22;21924;51.934;7.414;2023-05-16T07:19:33;10.50;99.90
35804;DHT22;21924;51.934;7.414;2023-05-16T07:22:18;10.50;99.90
35804;DHT22;21924;51.934;7.414;2023-05-16T07:25:02;10.70;99.90
35804;DHT22;21924;51.934;7.414;2023-05-16T07:27:47;10.70;99.90
35804;DHT22;21924;51.934;7.414;2023-05-16T07:30:31;10.70;99.90
35804;DHT22;21924;51.934;7.414;2023-05-16T07:33:16;10.80;99.90
35804;DHT22;21924;51.934;7.414;2023-05-16T07:36:00;11.00;99.90
35804;DHT22;21924;51.934;7.414;2023-05-16T07:38:44;11.20;99.90
35804;DHT22;21924;51.934;7.414;2023-05-16T07:41:29;11.20;99.90
35804;DHT22;21924;51.934;7.414;2023-05-16T07:44:13;11.30;99.90
35804;DHT22;21924;51.934;7.414;2023-05-16T07:46:57;11.20;99.90
35804;DHT22;21924;51.934;7.414;2023-05-16T07:49:42;11.20;99.90
35804;DHT22;21924;51.934;7.414;2023-05-16T07:52:26;11.10;99.90
35804;DHT22;21924;51.934;7.414;2023-05-16T07:55:11;11.20;99.90
35804;DHT22;21924;51.934;7.414;2023-05-16T07:57:55;11.30;99.90
35804;DHT22;21924;51.934;7.414;2023-05-16T08:00:39;11.30;99.90
35804;DHT22;21924;51.934;7.414;2023-05-16T08:03:23;11.40;99.90
35804;DHT22;21924;51.934;7.414;2023-05-16T08:06:08;11.50;99.90
35804;DHT22;21924;51.934;7.414;2023-05-16T08:08:52;11.70;99.90
35804;DHT22;21924;51.934;7.414;2023-05-16T08:11:36;11.80;99.90
35804;DHT22;21924;51.934;7.414;2023-05-16T08:14:22;11.90;99.90
35804;DHT22;21924;51.934;7.414;2023-05-16T08:17:07;12.00;99.90
35804;DHT22;21924;51.934;7.414;2023-05-16T08:19:51;12.10;99.90
35804;DHT22;21924;51.934;7.414;2023-05-16T08:22:35;12.20;99.90
35804;DHT22;21924;51.934;7.414;2023-05-16T08:25:19;12.30;99.90
35804;DHT22;21924;51.934;7.414;2023-05-16T08:28:04;12.50;99.90
35804;DHT22;21924;51.934;7.414;2023-05-16T08:30:48;12.70;99.90
35804;DHT22;21924;51.934;7.414;2023-05-16T08:33:32;13.00;99.90
35804;DHT22;21924;51.934;7.414;2023-05-16T08:36:17;13.20;99.90
35804;DHT22;21924;51.934;7.414;2023-05-16T08:39:03;13.00;99.90
35804;DHT22;21924;51.934;7.414;2023-05-16T08:41:48;12.80;99.90
35804;DHT22;21924;51.934;7.414;2023-05-16T08:44:33;12.80;99.90
35804;DHT22;21924;51.934;7.414;2023-05-16T08:47:18;13.00;99.90
35804;DHT22;21924;51.934;7.414;2023-05-16T08:50:06;13.10;99.90
35804;DHT22;21924;51.934;7.414;2023-05-16T08:52:52;13.00;99.90
35804;DHT22;21924;51.934;7.414;2023-05-16T08:55:39;12.90;99.90
35804;DHT22;21924;51.934;7.414;2023-05-16T08:58:24;12.90;99.90
35804;DHT22;21924;51.934;7.414;2023-05-16T09:01:09;13.10;99.90
35804;DHT22;21924;51.934;7.414;2023-05-16T09:03:54;13.10;99.90
35804;DHT22;21924;51.934;7.414;2023-05-16T09:06:38;13.40;99.90
35804;DHT22;21924;51.934;7.414;2023-05-16T09:09:23;13.50;99.90
35804;DHT22;21924;51.934;7.414;2023-05-16T09:12:07;13.80;99.90
35804;DHT22;21924;51.934;7.414;2023-05-16T09:14:52;14.10;99.90
35804;DHT22;21924;51.934;7.414;2023-05-16T09:17:45;14.30;99.90
35804;DHT22;21924;51.934;7.414;2023-05-16T09:20:29;14.10;99.90
35804;DHT22;21924;51.934;7.414;2023-05-16T09:23:14;13.80;99.90
35804;DHT22;21924;51.934;7.414;2023-05-16T09:25:58;13.50;99.90
35804;DHT22;21924;51.934;7.414;2023-05-16T09:28:43;13.50;99.90
35804;DHT22;21924;51.934;7.414;2023-05-16T09:31:28;13.20;99.90
35804;DHT22;21924;51.934;7.414;2023-05-16T09:34:21;13.30;99.90
35804;DHT22;21924;51.934;7.414;2023-05-16T09:37:05;13.60;99.90
35804;DHT22;21924;51.934;7.414;2023-05-16T09:39:51;13.80;99.90
35804;DHT22;21924;51.934;7.414;2023-05-16T09:42:36;13.80;99.90
35804;DHT22;21924;51.934;7.414;2023-05-16T09:45:21;13.80;99.90
35804;DHT22;21924;51.934;7.414;2023-05-16T09:48:10;13.60;99.90
35804;DHT22;21924;51.934;7.414;2023-05-16T09:50:58;13.70;99.90
35804;DHT22;21924;51.934;7.414;2023-05-16T09:53:47;13.70;99.90
35804;DHT22;21924;51.934;7.414;2023-05-16T09:56:31;14.00;99.90
35804;DHT22;21924;51.934;7.414;2023-05-16T09:59:16;14.10;99.90
35804;DHT22;21924;51.934;7.414;2023-05-16T10:02:00;14.20;99.90
35804;DHT22;21924;51.934;7.414;2023-05-16T10:04:45;14.30;99.90
35804;DHT22;21924;51.934;7.414;2023-05-16T10:07:30;14.20;99.90
35804;DHT22;21924;51.934;7.414;2023-05-16T10:10:17;13.70;99.90
35804;DHT22;21924;51.934;7.414;2023-05-16T10:13:04;13.70;99.90
35804;DHT22;21924;51.934;7.414;2023-05-16T10:15:49;14.00;99.90
35804;DHT22;21924;51.934;7.414;2023-05-16T10:18:34;14.20;99.90
35804;DHT22;21924;51.934;7.414;2023-05-16T10:21:21;14.60;99.90
35804;DHT22;21924;51.934;7.414;2023-05-16T10:24:06;14.90;99.90
35804;DHT22;21924;51.934;7.414;2023-05-16T10:26:52;15.20;99.90
35804;DHT22;21924;51.934;7.414;2023-05-16T10:29:36;15.20;99.90
35804;DHT22;21924;51.934;7.414;2023-05-16T10:32:22;15.50;99.90
35804;DHT22;21924;51.934;7.414;2023-05-16T10:35:08;15.60;99.90
35804;DHT22;21924;51.934;7.414;2023-05-16T10:37:53;15.40;99.90
35804;DHT22;21924;51.934;7.414;2023-05-16T10:40:38;15.00;99.90
35804;DHT22;21924;51.934;7.414;2023-05-16T10:43:24;14.50;99.90
35804;DHT22;21924;51.934;7.414;2023-05-16T10:46:10;14.20;99.90
35804;DHT22;21924;51.934;7.414;2023-05-16T10:48:54;14.10;99.90
35804;DHT22;21924;51.934;7.414;2023-05-16T10:51:38;14.60;99.90
35804;DHT22;21924;51.934;7.414;2023-05-16T10:54:39;14.90;99.90
35804;DHT22;21924;51.934;7.414;2023-05-16T10:57:24;15.00;99.90
35804;DHT22;21924;51.934;7.414;2023-05-16T11:00:21;15.10;99.90
35804;DHT22;21924;51.934;7.414;2023-05-16T11:03:05;14.90;99.90
35804;DHT22;21924;51.934;7.414;2023-05-16T11:06:02;14.50;99.90
35804;DHT22;21924;51.934;7.414;2023-05-16T11:12:02;14.20;99.90
35804;DHT22;21924;51.934;7.414;2023-05-16T11:14:50;13.90;99.90
35804;DHT22;21924;51.934;7.414;2023-05-16T11:17:38;13.90;99.90
35804;DHT22;21924;51.934;7.414;2023-05-16T11:20:30;14.40;99.90
35804;DHT22;21924;51.934;7.414;2023-05-16T11:26:00;15.60;99.90
35804;DHT22;21924;51.934;7.414;2023-05-16T11:28:48;16.20;99.90
35804;DHT22;21924;51.934;7.414;2023-05-16T11:31:34;17.10;99.90
35804;DHT22;21924;51.934;7.414;2023-05-16T11:34:18;17.50;99.90
35804;DHT22;21924;51.934;7.414;2023-05-16T11:37:02;17.00;99.90
35804;DHT22;21924;51.934;7.414;2023-05-16T11:39:47;16.10;99.90
35804;DHT22;21924;51.934;7.414;2023-05-16T11:42:34;15.50;99.90
35804;DHT22;21924;51.934;7.414;2023-05-16T11:45:19;14.60;99.90
35804;DHT22;21924;51.934;7.414;2023-05-16T11:48:13;14.30;99.90
35804;DHT22;21924;51.934;7.414;2023-05-16T11:50:58;14.10;99.90
35804;DHT22;21924;51.934;7.414;2023-05-16T11:53:42;13.80;99.90
35804;DHT22;21924;51.934;7.414;2023-05-16T11:56:26;13.90;99.90
35804;DHT22;21924;51.934;7.414;2023-05-16T11:59:11;14.40;99.90
35804;DHT22;21924;51.934;7.414;2023-05-16T12:01:55;15.00;99.90
35804;DHT22;21924;51.934;7.414;2023-05-16T12:04:40;15.10;99.90
35804;DHT22;21924;51.934;7.414;2023-05-16T12:07:27;15.30;99.90
35804;DHT22;21924;51.934;7.414;2023-05-16T12:10:14;15.10;99.90
35804;DHT22;21924;51.934;7.414;2023-05-16T12:12:59;15.00;99.90
35804;DHT22;21924;51.934;7.414;2023-05-16T12:15:43;14.60;99.90
35804;DHT22;21924;51.934;7.414;2023-05-16T12:18:28;14.80;99.90
35804;DHT22;21924;51.934;7.414;2023-05-16T12:21:12;15.10;99.90
35804;DHT22;21924;51.934;7.414;2023-05-16T12:23:57;15.70;99.90
35804;DHT22;21924;51.934;7.414;2023-05-16T12:26:41;16.20;99.90
35804;DHT22;21924;51.934;7.414;2023-05-16T12:29:28;16.40;99.90
35804;DHT22;21924;51.934;7.414;2023-05-16T12:32:18;16.50;99.90
35804;DHT22;21924;51.934;7.414;2023-05-16T12:35:02;16.10;99.90
35804;DHT22;21924;51.934;7.414;2023-05-16T12:37:48;15.70;99.90
35804;DHT22;21924;51.934;7.414;2023-05-16T12:40:38;15.30;99.90
35804;DHT22;21924;51.934;7.414;2023-05-16T12:43:22;15.10;99.90
35804;DHT22;21924;51.934;7.414;2023-05-16T12:46:09;15.00;99.90
35804;DHT22;21924;51.934;7.414;2023-05-16T12:49:01;15.30;99.90
35804;DHT22;21924;51.934;7.414;2023-05-16T12:54:34;16.60;99.90
35804;DHT22;21924;51.934;7.414;2023-05-16T12:57:18;16.60;99.90
35804;DHT22;21924;51.934;7.414;2023-05-16T13:00:02;16.80;99.90
35804;DHT22;21924;51.934;7.414;2023-05-16T13:02:48;17.20;99.90
35804;DHT22;21924;51.934;7.414;2023-05-16T13:05:32;17.50;99.90
35804;DHT22;21924;51.934;7.414;2023-05-16T13:08:16;17.50;99.90
35804;DHT22;21924;51.934;7.414;2023-05-16T13:11:01;17.20;99.90
35804;DHT22;21924;51.934;7.414;2023-05-16T13:13:45;17.30;99.90
35804;DHT22;21924;51.934;7.414;2023-05-16T13:16:29;18.00;99.90
35804;DHT22;21924;51.934;7.414;2023-05-16T13:19:14;18.40;99.90
35804;DHT22;21924;51.934;7.414;2023-05-16T13:21:58;18.50;99.90
35804;DHT22;21924;51.934;7.414;2023-05-16T13:24:42;18.80;99.90
35804;DHT22;21924;51.934;7.414;2023-05-16T13:27:26;19.00;99.90
35804;DHT22;21924;51.934;7.414;2023-05-16T13:30:11;19.00;99.90
35804;DHT22;21924;51.934;7.414;2023-05-16T13:32:55;19.10;99.90
35804;DHT22;21924;51.934;7.414;2023-05-16T13:35:39;19.40;99.90
35804;DHT22;21924;51.934;7.414;2023-05-16T13:38:24;19.00;99.90
35804;DHT22;21924;51.934;7.414;2023-05-16T13:41:09;18.00;99.90
35804;DHT22;21924;51.934;7.414;2023-05-16T13:43:53;17.20;99.90
35804;DHT22;21924;51.934;7.414;2023-05-16T13:46:37;16.80;99.90
35804;DHT22;21924;51.934;7.414;2023-05-16T13:49:22;16.50;99.90
35804;DHT22;21924;51.934;7.414;2023-05-16T13:52:06;16.20;99.90
35804;DHT22;21924;51.934;7.414;2023-05-16T13:54:51;16.60;99.90
35804;DHT22;21924;51.934;7.414;2023-05-16T13:57:35;16.70;99.90
35804;DHT22;21924;51.934;7.414;2023-05-16T14:00:20;16.50;99.90
35804;DHT22;21924;51.934;7.414;2023-05-16T14:03:04;16.40;99.90
35804;DHT22;21924;51.934;7.414;2023-05-16T14:05:48;16.10;99.90
35804;DHT22;21924;51.934;7.414;2023-05-16T14:08:32;15.90;99.90
35804;DHT22;21924;51.934;7.414;2023-05-16T14:11:16;15.50;99.90
35804;DHT22;21924;51.934;7.414;2023-05-16T14:14:02;15.20;99.90
35804;DHT22;21924;51.934;7.414;2023-05-16T14:16:46;14.90;99.90
35804;DHT22;21924;51.934;7.414;2023-05-16T14:19:31;15.00;99.90
35804;DHT22;21924;51.934;7.414;2023-05-16T14:22:15;15.20;99.90
35804;DHT22;21924;51.934;7.414;2023-05-16T14:25:01;15.30;99.90
35804;DHT22;21924;51.934;7.414;2023-05-16T14:27:46;15.40;99.90
35804;DHT22;21924;51.934;7.414;2023-05-16T14:30:30;15.50;99.90
35804;DHT22;21924;51.934;7.414;2023-05-16T14:33:14;15.60;99.90
35804;DHT22;21924;51.934;7.414;2023-05-16T14:35:59;15.40;99.90
35804;DHT22;21924;51.934;7.414;2023-05-16T14:38:43;15.20;99.90
35804;DHT22;21924;51.934;7.414;2023-05-16T14:41:28;15.00;99.90
35804;DHT22;21924;51.934;7.414;2023-05-16T14:44:12;14.60;99.90
35804;DHT22;21924;51.934;7.414;2023-05-16T14:46:56;14.10;99.90
35804;DHT22;21924;51.934;7.414;2023-05-16T14:49:40;13.80;99.90
35804;DHT22;21924;51.934;7.414;2023-05-16T14:52:25;13.60;99.90
35804;DHT22;21924;51.934;7.414;2023-05-16T14:55:09;13.60;99.90
35804;DHT22;21924;51.934;7.414;2023-05-16T14:57:54;13.40;99.90
35804;DHT22;21924;51.934;7.414;2023-05-16T15:00:38;13.50;99.90
35804;DHT22;21924;51.934;7.414;2023-05-16T15:03:23;13.30;99.90
35804;DHT22;21924;51.934;7.414;2023-05-16T15:06:07;13.10;99.90
35804;DHT22;21924;51.934;7.414;2023-05-16T15:08:53;13.10;99.90
35804;DHT22;21924;51.934;7.414;2023-05-16T15:11:37;12.80;99.90
35804;DHT22;21924;51.934;7.414;2023-05-16T15:14:22;12.40;99.90
35804;DHT22;21924;51.934;7.414;2023-05-16T15:17:06;12.30;99.90
35804;DHT22;21924;51.934;7.414;2023-05-16T15:19:50;12.40;99.90
35804;DHT22;21924;51.934;7.414;2023-05-16T15:22:37;12.70;99.90
35804;DHT22;21924;51.934;7.414;2023-05-16T15:25:21;13.20;99.90
35804;DHT22;21924;51.934;7.414;2023-05-16T15:28:06;13.60;99.90
35804;DHT22;21924;51.934;7.414;2023-05-16T15:30:50;13.60;99.90
35804;DHT22;21924;51.934;7.414;2023-05-16T15:33:35;13.50;99.90
35804;DHT22;21924;51.934;7.414;2023-05-16T15:36:19;13.40;99.90
35804;DHT22;21924;51.934;7.414;2023-05-16T15:39:03;13.40;99.90
35804;DHT22;21924;51.934;7.414;2023-05-16T15:41:48;13.30;99.90
35804;DHT22;21924;51.934;7.414;2023-05-16T15:44:32;13.20;99.90
35804;DHT22;21924;51.934;7.414;2023-05-16T15:47:17;13.20;99.90
35804;DHT22;21924;51.934;7.414;2023-05-16T15:53:43;13.20;99.90
35804;DHT22;21924;51.934;7.414;2023-05-16T15:56:27;13.20;99.90
35804;DHT22;21924;51.934;7.414;2023-05-16T15:59:12;13.20;99.90
35804;DHT22;21924;51.934;7.414;2023-05-16T16:01:56;13.20;99.90
35804;DHT22;21924;51.934;7.414;2023-05-16T16:04:40;13.30;99.90
35804;DHT22;21924;51.934;7.414;2023-05-16T16:07:24;13.30;99.90
35804;DHT22;21924;51.934;7.414;2023-05-16T16:10:10;13.30;99.90
35804;DHT22;21924;51.934;7.414;2023-05-16T16:13:01;13.30;99.90
35804;DHT22;21924;51.934;7.414;2023-05-16T16:15:46;13.40;99.90
35804;DHT22;21924;51.934;7.414;2023-05-16T16:18:30;13.60;99.90
35804;DHT22;21924;51.934;7.414;2023-05-16T16:21:15;13.60;99.90
35804;DHT22;21924;51.934;7.414;2023-05-16T16:23:59;13.60;99.90
35804;DHT22;21924;51.934;7.414;2023-05-16T16:26:44;13.60;99.90
35804;DHT22;21924;51.934;7.414;2023-05-16T16:29:28;13.30;99.90
35804;DHT22;21924;51.934;7.414;2023-05-16T16:32:12;13.20;99.90
35804;DHT22;21924;51.934;7.414;2023-05-16T16:34:57;13.10;99.90
35804;DHT22;21924;51.934;7.414;2023-05-16T16:37:41;13.00;99.90
35804;DHT22;21924;51.934;7.414;2023-05-16T16:40:25;13.00;99.90
35804;DHT22;21924;51.934;7.414;2023-05-16T16:43:09;13.00;99.90
35804;DHT22;21924;51.934;7.414;2023-05-16T16:45:54;12.90;99.90
35804;DHT22;21924;51.934;7.414;2023-05-16T16:48:38;12.80;99.90
35804;DHT22;21924;51.934;7.414;2023-05-16T16:51:22;12.80;99.90
35804;DHT22;21924;51.934;7.414;2023-05-16T16:54:06;12.80;99.90
35804;DHT22;21924;51.934;7.414;2023-05-16T16:56:51;12.70;99.90
35804;DHT22;21924;51.934;7.414;2023-05-16T16:59:35;12.60;99.90
35804;DHT22;21924;51.934;7.414;2023-05-16T17:02:19;12.60;99.90
35804;DHT22;21924;51.934;7.414;2023-05-16T17:05:05;12.50;99.90
35804;DHT22;21924;51.934;7.414;2023-05-16T17:07:49;12.50;99.90
35804;DHT22;21924;51.934;7.414;2023-05-16T17:10:34;12.50;99.90
35804;DHT22;21924;51.934;7.414;2023-05-16T17:13:18;12.40;99.90
35804;DHT22;21924;51.934;7.414;2023-05-16T17:16:03;12.40;99.90
35804;DHT22;21924;51.934;7.414;2023-05-16T17:18:47;12.40;99.90
35804;DHT22;21924;51.934;7.414;2023-05-16T17:21:31;12.40;99.90
35804;DHT22;21924;51.934;7.414;2023-05-16T17:24:20;12.40;99.90
35804;DHT22;21924;51.934;7.414;2023-05-16T17:27:04;12.50;99.90
35804;DHT22;21924;51.934;7.414;2023-05-16T17:29:48;12.50;99.90
35804;DHT22;21924;51.934;7.414;2023-05-16T17:32:33;12.50;99.90
35804;DHT22;21924;51.934;7.414;2023-05-16T17:35:17;12.40;99.90
35804;DHT22;21924;51.934;7.414;2023-05-16T17:38:03;12.50;99.90
35804;DHT22;21924;51.934;7.414;2023-05-16T17:40:47;12.40;99.90
35804;DHT22;21924;51.934;7.414;2023-05-16T17:43:31;12.40;99.90
35804;DHT22;21924;51.934;7.414;2023-05-16T17:46:16;12.40;99.90
35804;DHT22;21924;51.934;7.414;2023-05-16T17:49:00;12.40;99.90
35804;DHT22;21924;51.934;7.414;2023-05-16T17:51:54;12.40;99.90